Time,TemperatureF,DewpointF,PressureIn,WindDirection,WindDirectionDegrees,WindSpeedMPH,WindSpeedGustMPH,Humidity,HourlyPrecipIn,Conditions,Clouds,dailyrainin,SoftwareType,DateUTC
2013-06-25 00:25:00,80.1,60.0,29.75,SSW,197,0.0,1.0,50,0.00,,,0.00,weatherlink.com 1.10,2013-06-24 21:25:00,
2013-06-25 00:40:00,79.5,60.0,29.75,SSW,197,0.0,2.0,51,0.00,,,0.00,weatherlink.com 1.10,2013-06-24 21:40:00,
2013-06-25 01:10:00,79.0,60.0,29.75,SSW,194,0.0,4.0,53,0.00,,,0.00,weatherlink.com 1.10,2013-06-24 22:10:00,
2013-06-25 01:25:00,78.5,61.0,29.74,SSE,160,0.0,6.0,55,0.00,,,0.00,weatherlink.com 1.10,2013-06-24 22:25:00,
2013-06-25 01:40:00,78.3,61.0,29.73,SSE,159,0.0,4.0,55,0.00,,,0.00,weatherlink.com 1.10,2013-06-24 22:40:00,
2013-06-25 01:55:00,77.9,61.0,29.73,South,173,0.0,4.0,56,0.00,,,0.00,weatherlink.com 1.10,2013-06-24 22:55:00,
2013-06-25 02:10:00,77.8,61.0,29.73,SSE,150,0.0,5.0,56,0.00,,,0.00,weatherlink.com 1.10,2013-06-24 23:10:00,
2013-06-25 02:25:00,78.1,61.0,29.72,SSE,150,0.0,1.0,56,0.00,,,0.00,weatherlink.com 1.10,2013-06-24 23:25:00,
2013-06-25 02:40:00,78.1,61.0,29.72,SSE,150,0.0,0.0,55,0.00,,,0.00,weatherlink.com 1.10,2013-06-24 23:40:00,
2013-06-25 02:55:00,78.3,60.0,29.72,SSE,150,0.0,0.0,54,0.00,,,0.00,weatherlink.com 1.10,2013-06-24 23:55:00,
2013-06-25 03:25:00,77.9,60.0,29.72,SSE,150,0.0,0.0,55,0.00,,,0.00,weatherlink.com 1.10,2013-06-25 00:25:00,
2013-06-25 03:40:00,77.7,59.0,29.72,SSE,150,0.0,0.0,53,0.00,,,0.00,weatherlink.com 1.10,2013-06-25 00:40:00,
2013-06-25 03:55:00,77.5,60.0,29.72,SSE,162,0.0,4.0,55,0.00,,,0.00,weatherlink.com 1.10,2013-06-25 00:55:00,
2013-06-25 04:25:00,77.4,60.0,29.71,SSE,163,0.0,0.0,55,0.00,,,0.00,weatherlink.com 1.10,2013-06-25 01:25:00,
2013-06-25 04:40:00,77.2,60.0,29.71,SSE,163,0.0,0.0,56,0.00,,,0.00,weatherlink.com 1.10,2013-06-25 01:40:00,
2013-06-25 04:55:00,76.6,60.0,29.71,SSE,163,0.0,0.0,57,0.00,,,0.00,weatherlink.com 1.10,2013-06-25 01:55:00,
2013-06-25 05:10:00,76.7,60.0,29.72,SSE,163,0.0,0.0,57,0.00,,,0.00,weatherlink.com 1.10,2013-06-25 02:10:00,
2013-06-25 05:25:00,76.7,60.0,29.72,SSE,163,0.0,0.0,57,0.00,,,0.00,weatherlink.com 1.10,2013-06-25 02:25:00,
2013-06-25 05:40:00,76.2,60.0,29.72,SSE,163,0.0,0.0,58,0.00,,,0.00,weatherlink.com 1.10,2013-06-25 02:40:00,
2013-06-25 05:55:00,76.6,59.0,29.73,SSE,152,0.0,2.0,55,0.00,,,0.00,weatherlink.com 1.10,2013-06-25 02:55:00,
2013-06-25 06:25:00,77.3,58.0,29.73,NE,43,3.0,5.0,51,0.00,,,0.00,weatherlink.com 1.10,2013-06-25 03:25:00,
2013-06-25 06:40:00,77.4,57.0,29.73,NE,39,0.0,5.0,50,0.00,,,0.00,weatherlink.com 1.10,2013-06-25 03:40:00,
2013-06-25 06:55:00,77.7,58.0,29.73,NE,46,0.0,5.0,50,0.00,,,0.00,weatherlink.com 1.10,2013-06-25 03:55:00,